Thursday, April 17, 2014
12:59 UTC
  |  Log In   |  Register Free
Airport Search:

Gainesville Municipal Airport
(KGLE)

FAA data valid effective April 3, 2014 until May 29, 2014 (unless otherwise noted).

 
 
 
 
 
 
 
 
 
 
 
 
 
 

Current Aviation Weather for Gainesville Municipal Airport (KGLE)

The most recent METAR observation for KGLE was updated at: 1135 UTC
METAR Summary (Translated METAR)
KGLE
171135Z AUTO 11005KT 10SM CLR 07/05 A3010 RMK AO2 T00700047
KGYI
(26.4 nm NE from KGLE)
171155Z AUTO 10008KT 10SM CLR 08/04 A3011 RMK AO2 T00770039 10102 20077
TAF
No TAF information found within 50 nm of KGLE
  Airport Weather Conditions for KGLE

 Current Weather at GLE
45° F
Fair
East winds at 5.8 mph
GLE NOAA Radar

Pressure: 30.10 in
Humidity: 85%
Wind: East at 5.8 MPH (5 KT)
Dew Point: 40.5°F
Visibility: 10.00 mi


Airport Weather Forecast for KGLE

Translated METAR and TAF for KGLE
Translated METAR for KGLE (1259 UTC 17 April 2014)
found at http://aviationweather.gov/adds/metars/
 
METAR text: KGLE 171235Z AUTO 11004KT 10SM SCT018 SCT026 08/06 A3013 RMK AO2 T00800060
Conditions at: KGLE (GAINESVILLE , TX, US) observed 1235 UTC 17 April 2014
Temperature: 8.0°C (46°F)
Dewpoint: 6.0°C (43°F) [RH = 87%]
Pressure (altimeter): 30.13 inches Hg (1020.4 mb)
Winds: from the ESE (110 degrees) at 5 MPH (4 knots; 2.1 m/s)
Visibility: 10 or more miles (16+ km)
Ceiling: at least 12,000 feet AGL
Clouds: scattered clouds at 1800 feet AGL
scattered clouds at 2600 feet AGL
Weather: automated observation with no human augmentation;
there may or may not be significant weather present at this time
Translated TAF for KGLE

There is no translated TAF available for this airport

Find All Airport Services Find A Hotel Find A Rental Car Find A Golf Course Find A Restaurant $100 Hamburger



FBO's on the Field
FBO Company Facility Photos Services Transportation Aviation Fuel Prices: Prices include tax
Catering Weather Repair Courtesy Rental Type 100LL JetA JetA+ MOGAS 8087
 
City of Gainesville Municipal Airport

This FBO has not yet been rated
FS:Phillips66
Last Updated: Mar-25
Login to update fuel prices
SS:
Contact City of Gainesville Municipal AirportMore FBO Information
 
Add another FBO Facility Photos Catering Weather Repair Courtesy Rental Type 100LL JetA JetA+ MOGAS 8087
Services Transportation Aviation Fuel Prices: Prices include tax


GlobalAir.com Airport Resource Center model-print
model-print
model-print
model-print